Impacts METAR Board
IDs:

KMEM - Memphis Intl, TN, US

Updated at: 2300 UTC 02 Oct 2022
Potential Impact None Slight Moderate High
Time 02/11Z 02/12Z 02/13Z 02/14Z 02/15Z 02/16Z 02/17Z 02/18Z 02/19Z 02/20Z 02/21Z 02/22Z 02/23Z
Temp57 56 58 62 68 72 75 77 79 80 80 80 77
Dewpt44 44 45 45 45 43 43 44 45 46 43 45 44
Altim30.13 30.15 30.17 30.19 30.20 30.21 30.19 30.18 30.16 30.14 30.13 30.13 30.13
VIS10 10 10 10 10 10 10 10 10 10 10 10 10
CIG-- -- -- -- -- -- -- -- -- -- -- -- --
CoverCLRCLRCLRCLRCLRCLRCLRCLRCLRCLRCLRCLRCLR
FltCatVFRVFRVFRVFRVFRVFRVFRVFRVFRVFRVFRVFRVFR
WX--------------------------
WDir3020104004050203010202010
WSpd6 5 4 6 6 10 9 10 11 9 9 11 10
WGst-- -- -- -- -- -- -- -- -- -- -- -- --
Raw hourly METARs
KMEM 021054Z 03006KT 10SM CLR 14/07 A3013 RMK AO2 SLP201 T01390067
KMEM 021154Z 02005KT 10SM CLR 13/07 A3015 RMK AO2 SLP207 T01330067 10167 20128 53018
KMEM 021254Z 01004KT 10SM CLR 14/07 A3017 RMK AO2 SLP214 T01440072
KMEM 021354Z 04006KT 10SM CLR 17/07 A3019 RMK AO2 SLP221 T01670072
KMEM 021454Z VRB06KT 10SM CLR 20/07 A3020 RMK AO2 SLP224 T02000072 51017
KMEM 021554Z 04010KT 10SM CLR 22/06 A3021 RMK AO2 SLP226 T02220061
KMEM 021654Z 05009KT 10SM CLR 24/06 A3019 RMK AO2 SLP221 T02390061
KMEM 021754Z 02010KT 10SM CLR 25/07 A3018 RMK AO2 SLP217 T02500067 10256 20128 58006
KMEM 021854Z 03011KT 10SM CLR 26/07 A3016 RMK AO2 SLP209 T02610072
KMEM 021954Z 01009KT 10SM CLR 27/08 A3014 RMK AO2 SLP201 T02670078
KMEM 022054Z 02009KT 10SM CLR 27/06 A3013 RMK AO2 SLP200 T02670061 56016
KMEM 022154Z 02011KT 10SM CLR 27/07 A3013 RMK AO2 SLP199 T02670072
KMEM 022254Z 01010KT 10SM CLR 25/07 A3013 RMK AO2 SLP201 T02500067



Page loaded:  23:41 UTC  |   04:41 PM Pacific  |   05:41 PM Mountain  |   06:41 PM Central  |   07:41 PM Eastern

 

ADVISORIES

FORECASTS

FORECASTS

OBSERVATIONS

USER TOOLS

ABOUT US